Time;durP1;ratioP1;P1;durP2;ratioP2;P2;SDS_P1;SDS_P2;PMS_P1;PMS_P2;Temp;Humidity;BMP_temperature;BMP_pressure;BME280_temperature;BME280_humidity;BME280_pressure;Samples;Min_cycle;Max_cycle;Signal;HPM_P1;HPM_P2
2021/12/06 00:01:06;;;;;;;36.30;18.30;;;3.40;99.90;;;;;;5052938;28;20058;-81
2021/12/06 00:03:40;;;;;;;37.97;18.98;;;2.20;99.90;;;;;;5070320;28;20499;-82
2021/12/06 00:06:08;;;;;;;35.60;17.65;;;2.20;99.90;;;;;;5052853;28;20048;-82
2021/12/06 00:08:34;;;;;;;37.40;18.02;;;2.20;99.90;;;;;;5053186;28;20069;-81
2021/12/06 00:11:06;;;;;;;37.03;17.55;;;2.20;99.90;;;;;;5036536;28;20045;-81
2021/12/06 00:13:35;;;;;;;37.25;18.13;;;2.20;99.90;;;;;;5070466;28;20431;-81
2021/12/06 00:16:05;;;;;;;36.17;18.05;;;2.20;99.90;;;;;;5053267;28;20098;-81
2021/12/06 00:18:31;;;;;;;36.42;18.13;;;3.90;99.90;;;;;;5053502;28;20029;-82
2021/12/06 00:20:57;;;;;;;38.53;18.25;;;3.60;99.90;;;;;;5052595;28;20036;-81
2021/12/06 00:23:23;;;;;;;36.50;17.85;;;2.30;99.90;;;;;;5069768;28;20036;-81
2021/12/06 00:25:48;;;;;;;39.03;18.53;;;2.50;99.90;;;;;;5052714;28;20045;-81
2021/12/06 00:28:14;;;;;;;37.47;18.53;;;2.20;99.90;;;;;;5070208;28;20314;-82
2021/12/06 00:30:40;;;;;;;37.00;17.25;;;2.70;99.90;;;;;;5052588;28;20048;-81
2021/12/06 00:33:06;;;;;;;37.97;17.58;;;3.00;99.90;;;;;;5018980;28;20039;-81
2021/12/06 00:35:31;;;;;;;39.40;19.30;;;2.20;99.90;;;;;;5051287;28;20541;-81
2021/12/06 00:38:00;;;;;;;35.60;17.00;;;2.20;99.90;;;;;;5039389;28;20032;-81
2021/12/06 00:40:33;;;;;;;38.72;17.83;;;2.20;99.90;;;;;;5037307;28;20095;-81
2021/12/06 00:43:00;;;;;;;36.70;18.55;;;2.20;99.90;;;;;;5055233;28;20047;-81
2021/12/06 00:45:26;;;;;;;34.33;16.67;;;3.00;99.90;;;;;;5072985;28;20507;-82
2021/12/06 00:47:52;;;;;;;35.42;17.90;;;3.10;99.90;;;;;;5072184;28;20040;-82
2021/12/06 00:50:20;;;;;;;38.47;18.45;;;2.20;99.90;;;;;;5039420;28;20036;-82
2021/12/06 00:52:47;;;;;;;39.03;18.58;;;4.00;99.90;;;;;;5055827;28;20037;-82
2021/12/06 00:55:13;;;;;;;39.15;18.45;;;3.40;99.90;;;;;;5056016;28;20037;-82
2021/12/06 00:57:39;;;;;;;;;;;3.90;99.90;;;;;;5056156;28;20052;-81
2021/12/06 01:00:16;;;;;;;38.65;17.80;;;3.90;99.90;;;;;;5055872;28;19942;-82
2021/12/06 01:02:43;;;;;;;39.78;18.15;;;2.10;99.90;;;;;;5053696;28;20040;-82
2021/12/06 01:05:09;;;;;;;39.58;18.13;;;3.70;99.90;;;;;;5039043;28;20036;-81
2021/12/06 01:07:35;;;;;;;39.83;19.38;;;2.10;99.90;;;;;;5072475;28;20466;-82
2021/12/06 01:10:01;;;;;;;46.15;19.65;;;3.70;99.90;;;;;;5038513;28;20049;-82
2021/12/06 01:12:27;;;;;;;43.38;19.08;;;2.90;99.90;;;;;;5072340;28;20033;-82
2021/12/06 01:14:52;;;;;;;39.22;18.88;;;3.30;99.90;;;;;;5055265;28;20435;-82
2021/12/06 01:17:18;;;;;;;43.22;19.33;;;3.70;99.90;;;;;;5055847;28;20028;-82
2021/12/06 01:19:44;;;;;;;40.73;19.03;;;3.70;99.90;;;;;;5055332;28;20097;-82
2021/12/06 01:24:46;;;;;;;42.65;19.63;;;3.10;99.90;;;;;;5072481;28;20044;-82
2021/12/06 01:30:19;;;;;;;40.67;18.00;;;2.70;99.90;;;;;;5071766;28;20102;-82
2021/12/06 01:33:31;;;;;;;42.17;19.38;;;3.60;99.90;;;;;;5052201;28;20032;-82
2021/12/06 01:41:04;;;;;;;43.40;19.25;;;2.20;99.90;;;;;;5071379;28;20064;-82
2021/12/06 01:43:30;;;;;;;43.40;18.73;;;2.10;99.90;;;;;;5055461;28;20040;-82
2021/12/06 01:45:55;;;;;;;40.05;18.50;;;2.20;99.90;;;;;;5037683;28;20037;-82
2021/12/06 01:48:21;;;;;;;43.65;20.52;;;2.30;99.90;;;;;;5050821;28;20036;-82
2021/12/06 01:50:47;;;;;;;47.03;19.02;;;2.10;99.90;;;;;;5071303;28;20612;-81
2021/12/06 01:53:13;;;;;;;47.83;19.85;;;3.20;99.90;;;;;;5071290;28;20521;-81
2021/12/06 01:55:40;;;;;;;44.40;18.92;;;2.10;99.90;;;;;;5038624;28;20432;-82
2021/12/06 01:58:08;;;;;;;46.80;20.45;;;3.90;99.90;;;;;;5054257;28;20162;-81
2021/12/06 02:00:51;;;;;;;45.53;19.30;;;2.10;99.90;;;;;;5054825;28;20068;-82
2021/12/06 02:03:17;;;;;;;45.38;20.25;;;2.10;99.90;;;;;;5071337;28;20044;-81
2021/12/06 02:05:45;;;;;;;46.10;20.45;;;2.20;99.90;;;;;;5038574;28;20369;-81
2021/12/06 02:08:11;;;;;;;52.20;21.00;;;2.10;99.90;;;;;;5054672;28;20082;-82
2021/12/06 02:10:38;;;;;;;46.47;20.52;;;3.10;99.90;;;;;;5071081;28;20045;-81
2021/12/06 02:13:05;;;;;;;47.53;20.52;;;3.50;99.90;;;;;;5070901;28;20680;-81
2021/12/06 02:15:45;;;;;;;45.15;20.17;;;2.10;99.90;;;;;;5071323;28;20407;-81
2021/12/06 02:18:29;;;;;;;44.63;19.40;;;2.10;99.90;;;;;;5056712;28;20055;-82
2021/12/06 02:21:03;;;;;;;47.22;20.58;;;2.90;99.90;;;;;;5070470;28;20047;-82
2021/12/06 02:23:30;;;;;;;50.38;23.95;;;2.30;99.90;;;;;;5055812;28;20040;-82
2021/12/06 02:25:56;;;;;;;;;;;3.40;99.90;;;;;;5037754;28;20101;-81
2021/12/06 02:28:21;;;;;;;47.75;20.15;;;2.10;99.90;;;;;;5071022;28;20330;-82
2021/12/06 02:30:47;;;;;;;49.50;21.70;;;2.10;99.90;;;;;;5018577;28;20033;-81
2021/12/06 02:33:13;;;;;;;47.03;19.70;;;3.90;99.90;;;;;;5054244;28;20036;-81
2021/12/06 02:35:39;;;;;;;51.42;21.73;;;2.30;99.90;;;;;;5054193;28;20036;-81
2021/12/06 02:38:07;;;;;;;53.03;22.70;;;2.30;99.90;;;;;;5054168;28;20577;-81
2021/12/06 02:40:36;;;;;;;53.35;21.65;;;3.70;99.90;;;;;;5036363;28;20283;-81
2021/12/06 02:43:04;;;;;;;50.35;22.30;;;2.60;99.90;;;;;;5071211;28;20051;-81
2021/12/06 02:45:30;;;;;;;50.70;21.10;;;3.10;99.90;;;;;;5054848;28;20040;-81
2021/12/06 02:47:58;;;;;;;56.50;23.00;;;2.30;99.90;;;;;;5070222;28;20070;-81
2021/12/06 02:50:29;;;;;;;49.58;21.65;;;3.60;99.90;;;;;;5037927;28;20117;-81
2021/12/06 02:52:55;;;;;;;52.45;21.27;;;2.20;99.90;;;;;;5052134;28;20050;-81
2021/12/06 02:55:43;;;;;;;51.70;20.70;;;3.40;99.90;;;;;;5037156;28;20083;-81
2021/12/06 02:58:22;;;;;;;52.17;22.05;;;3.30;99.90;;;;;;5055425;28;20064;-81
2021/12/06 03:00:53;;;;;;;52.55;21.52;;;3.20;99.90;;;;;;5054423;28;20044;-81
2021/12/06 03:03:19;;;;;;;47.65;20.65;;;3.60;99.90;;;;;;5069051;28;20048;-81
2021/12/06 03:05:45;;;;;;;;;;;2.20;99.90;;;;;;5052959;28;20028;-81
2021/12/06 03:08:12;;;;;;;48.78;19.33;;;2.20;99.90;;;;;;5051317;28;19935;-81
2021/12/06 03:10:38;;;;;;;48.72;21.77;;;4.00;99.90;;;;;;5051730;28;20045;-81
2021/12/06 03:13:05;;;;;;;49.58;22.10;;;2.20;99.90;;;;;;5051134;28;20028;-81
2021/12/06 03:15:31;;;;;;;52.78;23.17;;;3.70;99.90;;;;;;5069240;28;20087;-81
2021/12/06 03:17:57;;;;;;;;;;;2.20;99.90;;;;;;5053155;28;20033;-81
2021/12/06 03:20:24;;;;;;;51.80;20.25;;;2.20;99.90;;;;;;5069888;28;19924;-81
2021/12/06 03:22:50;;;;;;;47.10;20.60;;;2.20;99.90;;;;;;5053238;28;20111;-81
2021/12/06 03:25:18;;;;;;;47.55;20.85;;;3.70;99.90;;;;;;5053328;28;20068;-81
2021/12/06 03:27:44;;;;;;;46.78;21.02;;;2.90;99.90;;;;;;5053630;28;20048;-81
2021/12/06 03:30:11;;;;;;;50.40;21.83;;;2.20;99.90;;;;;;5069119;28;20041;-82
2021/12/06 03:32:37;;;;;;;51.28;22.05;;;2.30;99.90;;;;;;5037146;28;20117;-82
2021/12/06 03:35:04;;;;;;;50.28;21.75;;;2.30;99.90;;;;;;5069246;28;20036;-81
2021/12/06 03:37:29;;;;;;;;;;;2.30;99.90;;;;;;5053354;28;20159;-82
2021/12/06 03:39:55;;;;;;;46.05;20.27;;;2.20;99.90;;;;;;5052288;28;20030;-82
2021/12/06 03:42:23;;;;;;;49.45;21.38;;;3.90;99.90;;;;;;5036215;28;20032;-82
2021/12/06 03:44:49;;;;;;;49.90;21.50;;;2.40;99.90;;;;;;5052970;28;20043;-82
2021/12/06 03:47:26;;;;;;;49.83;20.23;;;2.30;99.90;;;;;;5069072;28;20043;-82
2021/12/06 03:49:52;;;;;;;;;;;2.30;99.90;;;;;;5051062;28;20087;-82
2021/12/06 03:52:19;;;;;;;51.75;21.20;;;2.30;99.90;;;;;;5053058;28;19923;-82
2021/12/06 03:54:46;;;;;;;49.30;19.60;;;2.30;99.90;;;;;;5069858;28;20494;-82
2021/12/06 03:57:13;;;;;;;54.00;22.27;;;3.50;99.90;;;;;;5036603;28;20043;-82
2021/12/06 03:59:38;;;;;;;;;;;2.90;99.90;;;;;;5053799;28;20044;-82
2021/12/06 04:02:05;;;;;;;51.90;20.77;;;3.00;99.90;;;;;;5052682;28;19916;-82
2021/12/06 04:04:30;;;;;;;55.30;22.45;;;2.30;99.90;;;;;;5053448;28;20853;-82
2021/12/06 04:06:57;;;;;;;57.03;22.25;;;2.40;99.90;;;;;;5068950;28;20040;-81
2021/12/06 04:09:23;;;;;;;57.22;23.00;;;2.30;99.90;;;;;;5035959;28;20044;-82
2021/12/06 04:11:49;;;;;;;60.50;22.58;;;3.40;99.90;;;;;;5053233;28;20507;-82
2021/12/06 04:14:15;;;;;;;59.97;23.65;;;3.40;99.90;;;;;;5052622;28;20090;-82
2021/12/06 04:16:42;;;;;;;61.13;22.27;;;3.00;99.90;;;;;;5053149;28;20562;-81
2021/12/06 04:19:08;;;;;;;60.70;22.60;;;2.30;99.90;;;;;;5052624;28;20097;-81
2021/12/06 04:21:35;;;;;;;55.83;21.67;;;2.80;99.90;;;;;;5069500;28;20072;-81
2021/12/06 04:24:00;;;;;;;54.38;21.23;;;2.30;99.90;;;;;;5069526;28;20515;-81
2021/12/06 04:26:26;;;;;;;55.17;22.85;;;2.20;99.90;;;;;;5052278;28;20123;-81
2021/12/06 04:28:59;;;;;;;52.80;21.70;;;3.80;99.90;;;;;;5052403;28;20484;-82
2021/12/06 04:31:31;;;;;;;55.05;22.05;;;2.30;99.90;;;;;;5051186;28;20069;-82
2021/12/06 04:33:57;;;;;;;56.22;22.63;;;2.30;99.90;;;;;;5068083;28;20040;-82
2021/12/06 04:36:23;;;;;;;;;;;2.90;99.90;;;;;;5036074;28;20120;-81
2021/12/06 04:38:49;;;;;;;59.15;23.20;;;2.30;99.90;;;;;;5035631;28;20002;-82
2021/12/06 04:41:15;;;;;;;57.42;21.77;;;2.60;99.90;;;;;;5017310;28;20037;-82
2021/12/06 04:43:40;;;;;;;56.08;22.25;;;2.30;99.90;;;;;;5052520;28;20484;-82
2021/12/06 04:46:06;;;;;;;61.77;21.73;;;3.00;99.90;;;;;;5068225;28;20044;-82
2021/12/06 04:48:32;;;;;;;52.25;20.23;;;2.50;99.90;;;;;;5035500;28;20290;-82
2021/12/06 04:50:58;;;;;;;51.88;20.30;;;2.30;99.90;;;;;;5051483;28;20032;-82
2021/12/06 04:53:27;;;;;;;56.42;21.10;;;3.50;99.90;;;;;;5052162;28;20127;-83
2021/12/06 04:56:02;;;;;;;57.58;21.42;;;3.40;99.90;;;;;;5052196;28;20048;-81
2021/12/06 04:58:31;;;;;;;55.92;21.98;;;3.80;99.90;;;;;;5052244;28;20029;-82
2021/12/06 05:01:08;;;;;;;58.08;21.95;;;2.50;99.90;;;;;;5051951;28;20040;-81
2021/12/06 05:03:35;;;;;;;51.33;20.10;;;2.40;99.90;;;;;;5049960;28;20079;-82
2021/12/06 05:06:06;;;;;;;58.88;21.65;;;3.30;99.90;;;;;;5035032;28;20047;-81
2021/12/06 05:08:35;;;;;;;56.95;21.65;;;2.40;99.90;;;;;;5068502;28;20087;-81
2021/12/06 05:11:02;;;;;;;54.85;21.08;;;2.40;99.90;;;;;;5068184;28;20067;-81
2021/12/06 05:13:30;;;;;;;51.97;21.35;;;3.10;99.90;;;;;;5035549;28;20059;-82
2021/12/06 05:15:56;;;;;;;55.30;20.45;;;3.80;99.90;;;;;;5035776;28;20032;-81
2021/12/06 05:18:22;;;;;;;;;;;2.40;99.90;;;;;;5068823;28;20392;-81
2021/12/06 05:20:48;;;;;;;61.13;22.77;;;2.40;99.90;;;;;;5085640;28;19938;-82
2021/12/06 05:23:14;;;;;;;67.22;23.33;;;3.30;99.90;;;;;;5071469;28;20097;-83
2021/12/06 05:25:40;;;;;;;60.10;22.88;;;2.60;99.90;;;;;;5023009;28;20048;-83
2021/12/06 05:28:06;;;;;;;62.35;22.13;;;2.40;99.90;;;;;;5072214;28;20098;-83
2021/12/06 05:30:34;;;;;;;64.82;22.85;;;2.40;99.90;;;;;;5039397;28;20037;-84
2021/12/06 05:33:01;;;;;;;56.80;21.27;;;2.40;99.90;;;;;;5039460;28;20569;-79
2021/12/06 05:35:27;;;;;;;62.10;23.10;;;2.40;99.90;;;;;;5072682;28;20048;-80
2021/12/06 05:37:55;;;;;;;55.95;20.00;;;2.40;99.90;;;;;;5072437;28;20033;-80
2021/12/06 05:40:24;;;;;;;57.42;23.27;;;2.40;99.90;;;;;;5071889;28;20101;-80
2021/12/06 05:42:51;;;;;;;58.95;22.45;;;2.40;99.90;;;;;;5072496;28;20051;-80
2021/12/06 05:45:20;;;;;;;59.92;21.92;;;2.50;99.90;;;;;;5071547;28;20071;-80
2021/12/06 05:47:47;;;;;;;58.30;22.52;;;2.50;99.90;;;;;;5070348;28;20211;-80
2021/12/06 05:50:14;;;;;;;57.17;21.83;;;3.50;99.90;;;;;;5055280;28;20040;-80
2021/12/06 05:52:40;;;;;;;62.03;23.55;;;3.10;99.90;;;;;;5055529;28;20097;-82
2021/12/06 05:55:08;;;;;;;57.45;21.75;;;4.00;99.90;;;;;;5071838;28;20048;-76
2021/12/06 05:57:35;;;;;;;61.38;22.08;;;2.40;99.90;;;;;;5055270;28;20119;-81
2021/12/06 06:00:04;;;;;;;57.92;21.95;;;3.60;99.90;;;;;;5038090;28;20097;-81
2021/12/06 06:02:30;;;;;;;56.85;21.40;;;2.40;99.90;;;;;;5054805;28;20037;-82
2021/12/06 06:04:55;;;;;;;57.88;20.98;;;2.60;99.90;;;;;;5071674;28;20540;-82
2021/12/06 06:07:21;;;;;;;57.60;21.07;;;2.40;99.90;;;;;;5054586;28;20036;-82
2021/12/06 06:09:47;;;;;;;53.65;21.75;;;3.10;99.90;;;;;;5054640;28;20044;-82
2021/12/06 06:12:12;;;;;;;56.30;21.35;;;2.40;99.90;;;;;;5054175;28;20033;-82
2021/12/06 06:14:38;;;;;;;58.15;21.25;;;3.50;99.90;;;;;;5071565;28;20047;-82
2021/12/06 06:17:10;;;;;;;51.47;19.67;;;3.70;99.90;;;;;;5054197;28;20480;-82
2021/12/06 06:19:39;;;;;;;63.58;22.67;;;2.80;99.90;;;;;;5056781;28;20145;-82
2021/12/06 06:22:08;;;;;;;55.65;21.58;;;2.30;99.90;;;;;;5056454;28;20574;-82
2021/12/06 06:24:33;;;;;;;55.15;20.50;;;2.30;99.90;;;;;;5073318;28;20492;-82
2021/12/06 06:26:59;;;;;;;53.60;20.48;;;3.50;99.90;;;;;;5038130;28;20076;-83
2021/12/06 06:29:25;;;;;;;57.10;19.98;;;2.30;99.90;;;;;;5054051;28;20051;-82
2021/12/06 06:31:51;;;;;;;53.95;19.95;;;2.40;99.90;;;;;;5071181;28;20039;-82
2021/12/06 06:34:17;;;;;;;62.47;21.10;;;2.40;99.90;;;;;;5037203;28;20036;-83
2021/12/06 06:36:43;;;;;;;57.88;19.48;;;2.40;99.90;;;;;;5054368;28;20064;-82
2021/12/06 06:39:10;;;;;;;51.25;19.73;;;3.50;99.90;;;;;;5037777;28;20102;-83
2021/12/06 06:41:36;;;;;;;52.58;19.58;;;3.50;99.90;;;;;;5054431;28;20510;-80
2021/12/06 06:44:02;;;;;;;54.97;19.65;;;2.50;99.90;;;;;;5054209;28;20078;-82
2021/12/06 06:46:28;;;;;;;58.78;21.25;;;2.40;99.90;;;;;;5054351;28;20036;-82
2021/12/06 06:48:56;;;;;;;62.85;22.38;;;3.20;99.90;;;;;;5037278;28;20036;-82
2021/12/06 06:51:23;;;;;;;58.75;21.17;;;3.00;99.90;;;;;;5054034;28;20072;-82
2021/12/06 06:53:49;;;;;;;55.42;19.52;;;3.90;99.90;;;;;;5020933;28;20037;-82
2021/12/06 06:56:15;;;;;;;57.45;19.58;;;3.80;99.90;;;;;;5069945;28;20036;-82
2021/12/06 06:58:41;;;;;;;61.70;21.75;;;2.40;99.90;;;;;;5054373;28;20040;-83
2021/12/06 07:01:07;;;;;;;61.10;21.50;;;2.40;99.90;;;;;;5053802;28;20047;-82
2021/12/06 07:03:33;;;;;;;60.63;20.27;;;2.40;99.90;;;;;;5054025;28;20105;-83
2021/12/06 07:06:03;;;;;;;53.80;19.13;;;2.40;99.90;;;;;;5053913;28;20577;-83
2021/12/06 07:08:29;;;;;;;60.80;21.75;;;2.40;99.90;;;;;;5084628;28;20056;-83
2021/12/06 07:10:56;;;;;;;57.28;20.10;;;3.60;99.90;;;;;;5053442;28;20120;-82
2021/12/06 07:13:26;;;;;;;62.80;21.50;;;2.40;99.90;;;;;;5053055;28;20044;-82
2021/12/06 07:15:51;;;;;;;59.78;20.27;;;2.40;99.90;;;;;;5070408;28;20837;-83
2021/12/06 07:18:17;;;;;;;56.80;19.52;;;2.40;99.90;;;;;;5069432;28;20044;-81
2021/12/06 07:20:44;;;;;;;57.05;20.35;;;2.40;99.90;;;;;;5036863;28;20040;-80
2021/12/06 07:23:09;;;;;;;;;;;3.00;99.90;;;;;;5053609;28;20500;-80
2021/12/06 07:25:35;;;;;;;54.50;19.83;;;2.40;99.90;;;;;;5053315;28;19920;-82
2021/12/06 07:28:04;;;;;;;56.25;20.00;;;3.50;99.90;;;;;;5053358;28;20041;-82
2021/12/06 07:30:30;;;;;;;54.28;19.05;;;2.40;99.90;;;;;;5067344;28;20526;-81
2021/12/06 07:32:56;;;;;;;59.47;20.73;;;2.40;99.90;;;;;;5053050;28;20116;-81
2021/12/06 07:35:23;;;;;;;57.40;19.67;;;3.50;99.90;;;;;;5052938;28;20024;-82
2021/12/06 07:37:49;;;;;;;60.55;20.05;;;2.40;99.90;;;;;;5053252;28;20400;-81
2021/12/06 07:40:16;;;;;;;;;;;2.40;99.90;;;;;;5053171;28;20479;-81
2021/12/06 07:42:42;;;;;;;54.05;19.00;;;2.50;99.90;;;;;;5053127;28;19919;-81
2021/12/06 07:45:10;;;;;;;57.28;19.00;;;3.40;99.90;;;;;;5069312;28;20500;-81
2021/12/06 07:47:37;;;;;;;53.08;19.85;;;2.60;99.90;;;;;;5053045;28;20447;-81
2021/12/06 07:50:09;;;;;;;53.38;19.45;;;3.20;99.90;;;;;;5052771;28;20044;-81
2021/12/06 07:52:35;;;;;;;57.97;19.13;;;2.50;99.90;;;;;;5052347;28;20044;-81
2021/12/06 07:55:03;;;;;;;65.47;20.65;;;3.90;99.90;;;;;;5052776;28;20115;-82
2021/12/06 07:57:29;;;;;;;60.30;19.95;;;3.30;99.90;;;;;;5052613;28;20029;-82
2021/12/06 07:59:56;;;;;;;64.45;21.48;;;3.40;99.90;;;;;;5036282;28;20056;-81
2021/12/06 08:02:22;;;;;;;60.72;22.45;;;2.40;99.90;;;;;;5052343;28;20040;-81
2021/12/06 08:04:54;;;;;;;;;;;3.40;99.90;;;;;;5070307;28;20043;-82
2021/12/06 08:07:20;;;;;;;59.42;21.23;;;2.40;99.90;;;;;;5052788;28;19943;-81
2021/12/06 08:09:49;;;;;;;71.93;23.08;;;2.40;99.90;;;;;;5069634;28;20048;-81
2021/12/06 08:12:15;;;;;;;67.18;21.48;;;2.40;99.90;;;;;;5020892;28;20634;-81
2021/12/06 08:14:41;;;;;;;63.85;22.02;;;2.40;99.90;;;;;;5069738;28;20047;-81
2021/12/06 08:17:06;;;;;;;62.95;20.17;;;2.50;99.90;;;;;;5070123;28;20064;-81
2021/12/06 08:19:32;;;;;;;61.13;20.50;;;2.50;99.90;;;;;;5052772;28;20036;-81
2021/12/06 08:21:58;;;;;;;59.63;20.30;;;2.50;99.90;;;;;;5053420;28;21021;-81
2021/12/06 08:24:24;;;;;;;61.00;19.73;;;2.50;99.90;;;;;;5069850;28;20321;-82
2021/12/06 08:26:49;;;;;;;62.75;21.45;;;2.50;99.90;;;;;;5053181;28;20044;-82
2021/12/06 08:29:16;;;;;;;61.10;19.38;;;2.60;99.90;;;;;;5052588;28;20142;-81
2021/12/06 08:31:44;;;;;;;59.10;20.25;;;2.50;99.90;;;;;;5066668;28;20043;-82
2021/12/06 08:34:10;;;;;;;58.47;20.10;;;2.60;99.90;;;;;;5052751;28;20064;-81
2021/12/06 08:36:37;;;;;;;65.13;21.95;;;2.50;99.90;;;;;;5035686;28;20093;-82
2021/12/06 08:39:05;;;;;;;54.08;19.52;;;2.80;99.90;;;;;;5039132;28;20112;-81
2021/12/06 08:41:31;;;;;;;62.78;20.40;;;2.90;99.90;;;;;;5051811;28;20374;-81
2021/12/06 08:43:58;;;;;;;60.40;19.20;;;2.60;99.90;;;;;;5036329;28;20072;-81
2021/12/06 08:46:31;;;;;;;60.38;19.13;;;2.70;99.90;;;;;;5052438;28;20048;-82
2021/12/06 08:48:57;;;;;;;61.22;19.40;;;2.60;99.90;;;;;;5050036;28;20036;-82
2021/12/06 08:51:30;;;;;;;59.67;19.83;;;4.00;99.90;;;;;;5052305;28;20036;-81
2021/12/06 08:53:58;;;;;;;69.43;21.02;;;2.60;99.90;;;;;;5069293;28;20036;-82
2021/12/06 08:56:24;;;;;;;55.05;18.77;;;2.60;99.90;;;;;;5052557;28;20036;-81
2021/12/06 08:58:50;;;;;;;59.38;21.08;;;3.00;99.90;;;;;;5072796;28;20032;-81
2021/12/06 09:01:17;;;;;;;58.05;19.88;;;2.60;99.90;;;;;;5039339;28;20051;-81
2021/12/06 09:03:43;;;;;;;63.38;20.77;;;2.70;99.90;;;;;;5070641;28;20080;-81
2021/12/06 09:06:10;;;;;;;58.73;20.80;;;2.70;99.90;;;;;;5039344;28;20068;-81
2021/12/06 09:08:39;;;;;;;52.83;18.60;;;2.70;99.90;;;;;;5072068;28;20299;-82
2021/12/06 09:11:05;;;;;;;51.53;18.38;;;2.80;99.90;;;;;;5072645;28;20551;-81
2021/12/06 09:13:32;;;;;;;52.05;18.10;;;2.80;99.90;;;;;;5055503;28;20040;-81
2021/12/06 09:15:59;;;;;;;48.33;17.35;;;2.80;99.90;;;;;;5055968;28;20093;-81
2021/12/06 09:18:29;;;;;;;50.53;18.33;;;2.90;99.90;;;;;;5072243;28;20476;-82
2021/12/06 09:20:57;;;;;;;48.88;17.30;;;3.40;99.90;;;;;;5055982;28;20500;-81
2021/12/06 09:23:23;;;;;;;47.92;16.75;;;2.90;99.90;;;;;;5039065;28;20040;-81
2021/12/06 09:25:49;;;;;;;49.63;17.50;;;3.00;99.90;;;;;;5056052;28;20758;-82
2021/12/06 09:28:17;;;;;;;45.08;17.63;;;3.00;99.90;;;;;;5038647;28;20043;-81
2021/12/06 09:30:44;;;;;;;48.53;17.30;;;4.00;99.90;;;;;;5055282;28;20033;-82
2021/12/06 09:33:12;;;;;;;39.75;15.73;;;4.10;99.90;;;;;;5055643;28;20047;-81
2021/12/06 09:35:43;;;;;;;42.17;16.70;;;3.30;99.90;;;;;;5055461;28;20044;-82
2021/12/06 09:38:11;;;;;;;43.10;15.38;;;3.20;99.90;;;;;;5055475;28;20033;-82
2021/12/06 09:40:41;;;;;;;40.25;15.75;;;4.30;99.90;;;;;;5039199;28;20048;-81
2021/12/06 09:43:09;;;;;;;43.70;15.40;;;3.30;99.90;;;;;;5055939;28;20119;-81
2021/12/06 09:45:37;;;;;;;40.90;15.48;;;4.20;99.90;;;;;;5055765;28;20480;-81
2021/12/06 09:48:05;;;;;;;39.05;15.05;;;3.40;99.90;;;;;;5069434;28;20040;-82
2021/12/06 09:50:37;;;;;;;37.25;14.95;;;3.40;99.90;;;;;;5072133;28;20044;-82
2021/12/06 09:53:10;;;;;;;37.25;14.88;;;3.40;99.90;;;;;;5055645;28;20028;-82
2021/12/06 09:55:37;;;;;;;37.30;15.25;;;4.30;99.90;;;;;;5054946;28;20444;-81
2021/12/06 09:58:04;;;;;;;33.55;14.13;;;3.30;99.90;;;;;;5054069;28;20033;-82
2021/12/06 10:00:33;;;;;;;40.33;16.30;;;3.20;99.90;;;;;;5054947;28;20479;-81
2021/12/06 10:02:59;;;;;;;35.70;13.85;;;3.30;99.90;;;;;;5071676;28;20277;-82
2021/12/06 10:05:29;;;;;;;39.33;13.95;;;3.20;99.90;;;;;;5054689;28;20136;-82
2021/12/06 10:07:57;;;;;;;36.22;13.57;;;3.80;99.90;;;;;;5038397;28;20488;-82
2021/12/06 10:10:25;;;;;;;36.22;15.50;;;3.20;99.90;;;;;;5054446;28;20066;-81
2021/12/06 10:12:54;;;;;;;33.35;13.55;;;3.80;99.90;;;;;;5038797;28;20040;-82
2021/12/06 10:15:21;;;;;;;33.92;14.45;;;4.50;99.90;;;;;;5055221;28;20044;-82
2021/12/06 10:17:47;;;;;;;39.80;15.40;;;4.10;99.90;;;;;;5038482;28;20029;-81
2021/12/06 10:20:13;;;;;;;35.97;14.50;;;3.00;99.90;;;;;;5038095;28;20115;-81
2021/12/06 10:22:40;;;;;;;38.10;15.13;;;3.10;99.90;;;;;;5071252;28;20095;-82
2021/12/06 10:25:07;;;;;;;38.70;15.68;;;3.00;99.90;;;;;;5037985;28;20037;-82
2021/12/06 10:27:33;;;;;;;41.13;14.90;;;3.00;99.90;;;;;;5049703;28;20434;-82
2021/12/06 10:30:04;;;;;;;35.72;14.95;;;3.10;99.90;;;;;;5054319;28;20097;-82
2021/12/06 10:32:32;;;;;;;34.42;14.00;;;4.10;99.90;;;;;;5070598;28;20037;-82
2021/12/06 10:35:12;;;;;;;32.80;13.48;;;3.20;99.90;;;;;;5054142;28;20036;-83
2021/12/06 10:37:48;;;;;;;39.17;14.95;;;3.20;99.90;;;;;;5070676;28;20484;-82
2021/12/06 10:40:20;;;;;;;36.72;15.57;;;3.20;99.90;;;;;;5068810;28;20512;-81
2021/12/06 10:42:48;;;;;;;35.15;14.07;;;4.40;99.90;;;;;;5054178;28;20544;-82
2021/12/06 10:45:19;;;;;;;39.22;15.30;;;3.00;99.90;;;;;;5070550;28;20036;-81
2021/12/06 10:48:08;;;;;;;36.63;14.75;;;4.00;99.90;;;;;;5053717;28;20040;-81
2021/12/06 10:50:36;;;;;;;33.58;14.20;;;3.00;99.90;;;;;;5068837;28;20713;-82
2021/12/06 10:53:03;;;;;;;36.50;15.52;;;3.30;99.90;;;;;;5053839;28;20040;-82
2021/12/06 10:55:35;;;;;;;33.50;14.43;;;4.40;99.90;;;;;;5020681;28;20036;-81
2021/12/06 10:58:07;;;;;;;35.78;14.68;;;3.00;99.90;;;;;;5051798;28;20507;-82
2021/12/06 11:00:48;;;;;;;32.30;13.93;;;3.00;99.90;;;;;;5069950;28;20029;-82
2021/12/06 11:03:34;;;;;;;36.58;14.73;;;3.10;99.90;;;;;;5066158;28;20042;-81
2021/12/06 11:06:09;;;;;;;34.78;13.70;;;3.00;99.90;;;;;;5069581;28;20491;-82
2021/12/06 11:08:37;;;;;;;36.22;13.68;;;3.10;99.90;;;;;;5053176;28;20157;-81
2021/12/06 11:11:09;;;;;;;32.10;13.13;;;3.20;99.90;;;;;;5070102;28;20175;-82
2021/12/06 11:13:41;;;;;;;34.53;14.93;;;3.20;99.90;;;;;;5053123;28;20032;-82
2021/12/06 11:16:22;;;;;;;39.53;15.80;;;3.10;99.90;;;;;;5070173;28;20117;-81
2021/12/06 11:19:09;;;;;;;36.45;14.85;;;3.00;99.90;;;;;;5069084;28;20114;-82
2021/12/06 11:21:44;;;;;;;42.15;16.50;;;3.10;99.90;;;;;;5050942;28;20044;-82
2021/12/06 11:24:18;;;;;;;43.83;16.33;;;3.10;99.90;;;;;;5054122;28;20036;-82
2021/12/06 11:27:24;;;;;;;48.40;18.52;;;3.20;99.90;;;;;;5068297;28;20045;-83
2021/12/06 11:30:07;;;;;;;52.80;19.10;;;3.20;99.90;;;;;;5053390;28;20111;-82
2021/12/06 11:32:43;;;;;;;57.55;21.95;;;3.20;99.90;;;;;;5068633;28;20037;-82
2021/12/06 11:35:18;;;;;;;49.10;18.67;;;3.20;99.90;;;;;;5048441;28;20119;-82
2021/12/06 11:37:46;;;;;;;53.63;21.60;;;3.20;99.90;;;;;;5053016;28;20075;-82
2021/12/06 11:40:24;;;;;;;49.67;19.40;;;3.30;99.90;;;;;;5069738;28;20079;-82
2021/12/06 11:43:03;;;;;;;52.47;18.98;;;3.80;99.90;;;;;;5052991;28;20483;-82
2021/12/06 11:45:39;;;;;;;45.17;17.88;;;3.20;99.90;;;;;;5070015;28;20496;-82
2021/12/06 11:48:08;;;;;;;48.00;18.15;;;3.20;99.90;;;;;;5053047;28;20090;-82
2021/12/06 11:50:38;;;;;;;42.28;17.13;;;3.10;99.90;;;;;;5066864;28;20119;-82
2021/12/06 11:53:05;;;;;;;40.80;15.13;;;3.20;99.90;;;;;;5053127;28;20040;-81
2021/12/06 11:55:32;;;;;;;40.17;16.67;;;3.20;99.90;;;;;;5052708;28;20203;-82
2021/12/06 11:57:58;;;;;;;40.10;15.63;;;3.60;99.90;;;;;;5036486;28;20036;-82
2021/12/06 12:00:26;;;;;;;39.70;15.27;;;4.80;99.90;;;;;;5036246;28;20047;-82
2021/12/06 12:02:58;;;;;;;38.00;15.55;;;3.20;99.90;;;;;;5069059;28;20048;-82
2021/12/06 12:05:34;;;;;;;30.55;13.40;;;3.20;99.90;;;;;;5067876;28;20033;-82
2021/12/06 12:08:07;;;;;;;29.58;12.65;;;3.30;99.90;;;;;;5069478;28;20044;-82
2021/12/06 12:10:45;;;;;;;29.58;13.35;;;4.90;99.90;;;;;;5084243;28;20044;-82
2021/12/06 12:13:35;;;;;;;25.65;11.80;;;3.60;99.90;;;;;;5050568;28;20483;-82
2021/12/06 12:16:07;;;;;;;31.35;12.38;;;3.50;99.90;;;;;;5069361;28;20062;-82
2021/12/06 12:18:38;;;;;;;21.73;8.95;;;3.70;99.90;;;;;;5052735;28;20667;-82
2021/12/06 12:21:07;;;;;;;29.48;11.88;;;4.10;99.90;;;;;;5084159;28;20036;-82
2021/12/06 12:23:33;;;;;;;26.55;12.60;;;4.20;99.90;;;;;;5069619;28;20434;-82
2021/12/06 12:26:04;;;;;;;25.40;12.07;;;3.40;99.90;;;;;;5035900;28;20036;-82
2021/12/06 12:28:38;;;;;;;26.83;11.77;;;3.50;99.90;;;;;;5052619;28;20040;-83
2021/12/06 12:31:08;;;;;;;28.60;11.85;;;3.70;99.90;;;;;;5049778;28;20070;-82
2021/12/06 12:33:36;;;;;;;29.48;12.75;;;4.20;99.90;;;;;;5073457;28;20082;-82
2021/12/06 12:36:12;;;;;;;27.73;11.93;;;4.00;99.90;;;;;;5072973;28;20032;-82
2021/12/06 12:38:41;;;;;;;28.73;12.38;;;3.50;99.90;;;;;;5054873;28;20684;-82
2021/12/06 12:41:14;;;;;;;28.90;13.55;;;3.40;99.90;;;;;;5073343;28;20527;-82
2021/12/06 12:44:02;;;;;;;28.05;12.35;;;3.50;99.90;;;;;;5068722;28;20526;-82
2021/12/06 12:46:33;;;;;;;28.70;12.55;;;3.90;99.90;;;;;;5066963;28;20037;-82
2021/12/06 12:49:12;;;;;;;29.92;13.52;;;4.20;99.90;;;;;;5056042;28;20123;-82
2021/12/06 12:51:49;;;;;;;30.25;11.77;;;3.50;99.90;;;;;;5054928;28;20037;-82
2021/12/06 12:54:23;;;;;;;33.83;13.70;;;3.50;99.90;;;;;;5054209;28;20033;-82
2021/12/06 12:56:58;;;;;;;29.88;12.70;;;3.60;99.90;;;;;;5072651;28;20056;-82
2021/12/06 12:59:47;;;;;;;32.08;12.82;;;4.00;99.90;;;;;;5071451;28;20044;-82